sensor_id;sensor_type;location;lat;lon;timestamp;P1;durP1;ratioP1;P2;durP2;ratioP2
357;SDS011;167;47.558;7.602;2022-07-29T00:00:09;3.60;;;3.40;;
357;SDS011;167;47.558;7.602;2022-07-29T00:02:35;3.60;;;3.40;;
357;SDS011;167;47.558;7.602;2022-07-29T00:05:02;3.70;;;3.40;;
357;SDS011;167;47.558;7.602;2022-07-29T00:07:28;3.53;;;3.23;;
357;SDS011;167;47.558;7.602;2022-07-29T00:09:54;3.37;;;3.17;;
357;SDS011;167;47.558;7.602;2022-07-29T00:12:21;3.60;;;3.40;;
357;SDS011;167;47.558;7.602;2022-07-29T00:14:47;3.87;;;3.57;;
357;SDS011;167;47.558;7.602;2022-07-29T00:17:13;4.30;;;4.00;;
357;SDS011;167;47.558;7.602;2022-07-29T00:19:39;3.30;;;3.10;;
357;SDS011;167;47.558;7.602;2022-07-29T00:22:05;3.60;;;3.30;;
357;SDS011;167;47.558;7.602;2022-07-29T00:24:31;3.97;;;3.77;;
357;SDS011;167;47.558;7.602;2022-07-29T00:26:57;3.50;;;3.27;;
357;SDS011;167;47.558;7.602;2022-07-29T00:29:23;3.93;;;3.63;;
357;SDS011;167;47.558;7.602;2022-07-29T00:31:49;3.40;;;3.20;;
357;SDS011;167;47.558;7.602;2022-07-29T00:34:16;3.87;;;3.57;;
357;SDS011;167;47.558;7.602;2022-07-29T00:37:01;3.90;;;3.70;;
357;SDS011;167;47.558;7.602;2022-07-29T00:39:27;3.67;;;3.40;;
357;SDS011;167;47.558;7.602;2022-07-29T00:41:53;3.70;;;3.50;;
357;SDS011;167;47.558;7.602;2022-07-29T00:44:19;3.83;;;3.60;;
357;SDS011;167;47.558;7.602;2022-07-29T00:46:45;3.97;;;3.67;;
357;SDS011;167;47.558;7.602;2022-07-29T00:49:11;3.90;;;3.70;;
357;SDS011;167;47.558;7.602;2022-07-29T00:51:37;3.90;;;3.70;;
357;SDS011;167;47.558;7.602;2022-07-29T00:54:04;3.53;;;3.33;;
357;SDS011;167;47.558;7.602;2022-07-29T00:56:30;3.70;;;3.40;;
357;SDS011;167;47.558;7.602;2022-07-29T00:58:57;4.40;;;4.10;;
357;SDS011;167;47.558;7.602;2022-07-29T01:01:23;4.30;;;4.10;;
357;SDS011;167;47.558;7.602;2022-07-29T01:03:49;3.30;;;3.20;;
357;SDS011;167;47.558;7.602;2022-07-29T01:06:16;4.10;;;3.80;;
357;SDS011;167;47.558;7.602;2022-07-29T01:08:42;3.83;;;3.63;;
357;SDS011;167;47.558;7.602;2022-07-29T01:11:08;4.03;;;3.83;;
357;SDS011;167;47.558;7.602;2022-07-29T01:13:35;4.33;;;3.93;;
357;SDS011;167;47.558;7.602;2022-07-29T01:19:00;3.67;;;3.37;;
357;SDS011;167;47.558;7.602;2022-07-29T01:21:34;4.03;;;3.83;;
357;SDS011;167;47.558;7.602;2022-07-29T01:24:11;4.00;;;3.70;;
357;SDS011;167;47.558;7.602;2022-07-29T01:26:42;3.97;;;3.67;;
357;SDS011;167;47.558;7.602;2022-07-29T01:31:47;4.13;;;3.93;;
357;SDS011;167;47.558;7.602;2022-07-29T01:34:17;3.47;;;3.37;;
357;SDS011;167;47.558;7.602;2022-07-29T01:36:45;5.20;;;3.67;;
357;SDS011;167;47.558;7.602;2022-07-29T01:39:19;5.70;;;4.50;;
357;SDS011;167;47.558;7.602;2022-07-29T01:42:23;6.10;;;4.30;;
357;SDS011;167;47.558;7.602;2022-07-29T01:45:00;4.57;;;4.17;;
357;SDS011;167;47.558;7.602;2022-07-29T01:47:37;4.20;;;3.90;;
357;SDS011;167;47.558;7.602;2022-07-29T01:50:05;4.17;;;3.87;;
357;SDS011;167;47.558;7.602;2022-07-29T01:52:47;4.60;;;4.30;;
357;SDS011;167;47.558;7.602;2022-07-29T01:55:15;4.60;;;4.30;;
357;SDS011;167;47.558;7.602;2022-07-29T01:57:43;4.23;;;3.93;;
357;SDS011;167;47.558;7.602;2022-07-29T02:00:10;5.30;;;5.00;;
357;SDS011;167;47.558;7.602;2022-07-29T02:02:37;4.87;;;4.47;;
357;SDS011;167;47.558;7.602;2022-07-29T02:05:05;4.50;;;4.20;;
357;SDS011;167;47.558;7.602;2022-07-29T02:07:31;5.27;;;4.87;;
357;SDS011;167;47.558;7.602;2022-07-29T02:09:58;5.37;;;4.97;;
357;SDS011;167;47.558;7.602;2022-07-29T02:12:26;4.80;;;4.50;;
357;SDS011;167;47.558;7.602;2022-07-29T02:14:53;4.80;;;4.40;;
357;SDS011;167;47.558;7.602;2022-07-29T02:17:27;5.00;;;4.70;;
357;SDS011;167;47.558;7.602;2022-07-29T02:19:56;5.23;;;4.63;;
357;SDS011;167;47.558;7.602;2022-07-29T02:22:22;5.13;;;4.83;;
357;SDS011;167;47.558;7.602;2022-07-29T02:24:50;5.10;;;4.60;;
357;SDS011;167;47.558;7.602;2022-07-29T02:27:17;5.00;;;4.70;;
357;SDS011;167;47.558;7.602;2022-07-29T02:29:45;5.10;;;4.70;;
357;SDS011;167;47.558;7.602;2022-07-29T02:32:12;4.57;;;4.37;;
357;SDS011;167;47.558;7.602;2022-07-29T02:34:39;5.20;;;4.90;;
357;SDS011;167;47.558;7.602;2022-07-29T02:37:05;5.60;;;5.20;;
357;SDS011;167;47.558;7.602;2022-07-29T02:39:33;5.33;;;4.80;;
357;SDS011;167;47.558;7.602;2022-07-29T02:42:03;5.00;;;4.60;;
357;SDS011;167;47.558;7.602;2022-07-29T02:44:29;5.80;;;5.40;;
357;SDS011;167;47.558;7.602;2022-07-29T02:49:52;5.40;;;4.93;;
357;SDS011;167;47.558;7.602;2022-07-29T02:52:20;5.43;;;5.13;;
357;SDS011;167;47.558;7.602;2022-07-29T02:57:25;5.70;;;5.23;;
357;SDS011;167;47.558;7.602;2022-07-29T02:59:54;4.53;;;4.23;;
357;SDS011;167;47.558;7.602;2022-07-29T03:02:23;4.80;;;4.50;;
357;SDS011;167;47.558;7.602;2022-07-29T03:04:50;4.83;;;4.53;;
357;SDS011;167;47.558;7.602;2022-07-29T03:07:18;5.87;;;5.47;;
357;SDS011;167;47.558;7.602;2022-07-29T03:09:44;6.57;;;5.90;;
357;SDS011;167;47.558;7.602;2022-07-29T03:12:11;4.47;;;4.17;;
357;SDS011;167;47.558;7.602;2022-07-29T03:14:37;5.83;;;5.53;;
357;SDS011;167;47.558;7.602;2022-07-29T03:17:04;5.20;;;4.90;;
357;SDS011;167;47.558;7.602;2022-07-29T03:19:30;5.20;;;4.90;;
357;SDS011;167;47.558;7.602;2022-07-29T03:21:57;5.33;;;4.97;;
357;SDS011;167;47.558;7.602;2022-07-29T03:24:34;5.57;;;5.20;;
357;SDS011;167;47.558;7.602;2022-07-29T03:27:00;5.93;;;5.43;;
357;SDS011;167;47.558;7.602;2022-07-29T03:29:26;5.17;;;4.77;;
357;SDS011;167;47.558;7.602;2022-07-29T03:31:52;5.27;;;4.77;;
357;SDS011;167;47.558;7.602;2022-07-29T03:34:19;5.23;;;4.93;;
357;SDS011;167;47.558;7.602;2022-07-29T03:36:45;4.10;;;3.80;;
357;SDS011;167;47.558;7.602;2022-07-29T03:39:11;5.33;;;5.03;;
357;SDS011;167;47.558;7.602;2022-07-29T03:41:40;5.23;;;4.73;;
357;SDS011;167;47.558;7.602;2022-07-29T03:44:08;5.77;;;5.27;;
357;SDS011;167;47.558;7.602;2022-07-29T03:46:35;4.67;;;4.30;;
357;SDS011;167;47.558;7.602;2022-07-29T03:49:02;4.90;;;4.50;;
357;SDS011;167;47.558;7.602;2022-07-29T03:51:29;4.87;;;4.67;;
357;SDS011;167;47.558;7.602;2022-07-29T03:53:56;4.50;;;4.30;;
357;SDS011;167;47.558;7.602;2022-07-29T03:56:22;5.77;;;5.40;;
357;SDS011;167;47.558;7.602;2022-07-29T03:58:52;5.13;;;4.83;;
357;SDS011;167;47.558;7.602;2022-07-29T04:01:18;5.90;;;5.03;;
357;SDS011;167;47.558;7.602;2022-07-29T04:03:45;5.43;;;5.03;;
357;SDS011;167;47.558;7.602;2022-07-29T04:06:11;6.20;;;5.80;;
357;SDS011;167;47.558;7.602;2022-07-29T04:08:37;4.93;;;4.30;;
357;SDS011;167;47.558;7.602;2022-07-29T04:11:04;6.80;;;5.10;;
357;SDS011;167;47.558;7.602;2022-07-29T04:13:30;5.13;;;4.83;;
357;SDS011;167;47.558;7.602;2022-07-29T04:15:56;5.57;;;5.27;;
357;SDS011;167;47.558;7.602;2022-07-29T04:18:23;5.40;;;5.10;;
357;SDS011;167;47.558;7.602;2022-07-29T04:20:49;5.53;;;5.17;;
357;SDS011;167;47.558;7.602;2022-07-29T04:23:15;6.07;;;5.53;;
357;SDS011;167;47.558;7.602;2022-07-29T04:25:41;5.90;;;5.50;;
357;SDS011;167;47.558;7.602;2022-07-29T04:28:07;5.53;;;5.13;;
357;SDS011;167;47.558;7.602;2022-07-29T04:30:34;4.40;;;4.20;;
357;SDS011;167;47.558;7.602;2022-07-29T04:33:02;5.20;;;4.87;;
357;SDS011;167;47.558;7.602;2022-07-29T04:35:33;5.47;;;5.07;;
357;SDS011;167;47.558;7.602;2022-07-29T04:37:59;5.30;;;5.00;;
357;SDS011;167;47.558;7.602;2022-07-29T04:40:25;4.80;;;4.50;;
357;SDS011;167;47.558;7.602;2022-07-29T04:42:51;5.67;;;5.17;;
357;SDS011;167;47.558;7.602;2022-07-29T04:45:17;4.97;;;4.67;;
357;SDS011;167;47.558;7.602;2022-07-29T04:47:43;5.63;;;5.20;;
357;SDS011;167;47.558;7.602;2022-07-29T04:50:09;5.03;;;4.73;;
357;SDS011;167;47.558;7.602;2022-07-29T04:52:35;5.07;;;4.67;;
357;SDS011;167;47.558;7.602;2022-07-29T04:55:02;4.40;;;4.10;;
357;SDS011;167;47.558;7.602;2022-07-29T04:57:28;5.50;;;5.10;;
357;SDS011;167;47.558;7.602;2022-07-29T04:59:54;5.60;;;5.20;;
357;SDS011;167;47.558;7.602;2022-07-29T05:02:20;5.10;;;4.70;;
357;SDS011;167;47.558;7.602;2022-07-29T05:04:47;4.97;;;4.70;;
357;SDS011;167;47.558;7.602;2022-07-29T05:07:13;4.90;;;4.50;;
357;SDS011;167;47.558;7.602;2022-07-29T05:09:39;5.63;;;5.13;;
357;SDS011;167;47.558;7.602;2022-07-29T05:12:06;6.00;;;4.87;;
357;SDS011;167;47.558;7.602;2022-07-29T05:14:32;5.90;;;5.50;;
357;SDS011;167;47.558;7.602;2022-07-29T05:16:58;5.70;;;5.30;;
357;SDS011;167;47.558;7.602;2022-07-29T05:19:24;5.93;;;5.53;;
357;SDS011;167;47.558;7.602;2022-07-29T05:21:50;6.70;;;6.20;;
357;SDS011;167;47.558;7.602;2022-07-29T05:24:16;5.13;;;4.83;;
357;SDS011;167;47.558;7.602;2022-07-29T05:26:42;6.23;;;5.70;;
357;SDS011;167;47.558;7.602;2022-07-29T05:29:08;6.37;;;5.47;;
357;SDS011;167;47.558;7.602;2022-07-29T05:31:36;5.67;;;5.17;;
357;SDS011;167;47.558;7.602;2022-07-29T05:34:02;5.90;;;5.40;;
357;SDS011;167;47.558;7.602;2022-07-29T05:36:28;6.27;;;5.67;;
357;SDS011;167;47.558;7.602;2022-07-29T05:38:54;6.53;;;5.87;;
357;SDS011;167;47.558;7.602;2022-07-29T05:41:20;6.60;;;5.70;;
357;SDS011;167;47.558;7.602;2022-07-29T05:43:46;4.70;;;4.40;;
357;SDS011;167;47.558;7.602;2022-07-29T05:46:12;4.43;;;4.13;;
357;SDS011;167;47.558;7.602;2022-07-29T05:48:39;3.63;;;3.43;;
357;SDS011;167;47.558;7.602;2022-07-29T05:51:05;3.30;;;3.10;;
357;SDS011;167;47.558;7.602;2022-07-29T05:53:31;3.73;;;3.43;;
357;SDS011;167;47.558;7.602;2022-07-29T05:55:57;4.00;;;3.70;;
357;SDS011;167;47.558;7.602;2022-07-29T05:58:23;3.53;;;3.30;;
357;SDS011;167;47.558;7.602;2022-07-29T06:00:49;4.13;;;3.90;;
357;SDS011;167;47.558;7.602;2022-07-29T06:03:15;4.00;;;3.70;;
357;SDS011;167;47.558;7.602;2022-07-29T06:05:41;3.83;;;3.63;;
357;SDS011;167;47.558;7.602;2022-07-29T06:08:07;3.40;;;3.17;;
357;SDS011;167;47.558;7.602;2022-07-29T06:10:36;3.90;;;3.40;;
357;SDS011;167;47.558;7.602;2022-07-29T06:13:02;3.90;;;3.60;;
357;SDS011;167;47.558;7.602;2022-07-29T06:15:28;3.20;;;3.10;;
357;SDS011;167;47.558;7.602;2022-07-29T06:17:54;3.40;;;3.20;;
357;SDS011;167;47.558;7.602;2022-07-29T06:20:20;3.80;;;3.60;;
357;SDS011;167;47.558;7.602;2022-07-29T06:22:46;3.90;;;3.70;;
357;SDS011;167;47.558;7.602;2022-07-29T06:25:12;3.10;;;2.90;;
357;SDS011;167;47.558;7.602;2022-07-29T06:27:39;3.53;;;3.30;;
357;SDS011;167;47.558;7.602;2022-07-29T06:30:05;4.33;;;4.03;;
357;SDS011;167;47.558;7.602;2022-07-29T06:32:35;3.90;;;3.70;;
357;SDS011;167;47.558;7.602;2022-07-29T06:35:01;4.90;;;4.60;;
357;SDS011;167;47.558;7.602;2022-07-29T06:37:27;5.30;;;4.97;;
357;SDS011;167;47.558;7.602;2022-07-29T06:39:53;5.10;;;4.63;;
357;SDS011;167;47.558;7.602;2022-07-29T06:42:42;6.07;;;5.60;;
357;SDS011;167;47.558;7.602;2022-07-29T06:45:09;5.87;;;5.27;;
357;SDS011;167;47.558;7.602;2022-07-29T06:47:35;6.20;;;5.70;;
357;SDS011;167;47.558;7.602;2022-07-29T06:50:01;6.10;;;5.67;;
357;SDS011;167;47.558;7.602;2022-07-29T06:52:27;7.70;;;6.50;;
357;SDS011;167;47.558;7.602;2022-07-29T06:54:53;6.13;;;5.63;;
357;SDS011;167;47.558;7.602;2022-07-29T06:57:20;5.83;;;5.43;;
357;SDS011;167;47.558;7.602;2022-07-29T06:59:46;5.00;;;4.70;;
357;SDS011;167;47.558;7.602;2022-07-29T07:02:12;6.20;;;5.80;;
357;SDS011;167;47.558;7.602;2022-07-29T07:04:38;6.53;;;5.90;;
357;SDS011;167;47.558;7.602;2022-07-29T07:07:04;3.87;;;3.57;;
357;SDS011;167;47.558;7.602;2022-07-29T07:09:30;7.00;;;3.40;;
357;SDS011;167;47.558;7.602;2022-07-29T07:11:56;4.17;;;3.87;;
357;SDS011;167;47.558;7.602;2022-07-29T07:14:22;4.23;;;3.70;;
357;SDS011;167;47.558;7.602;2022-07-29T07:16:48;3.90;;;3.50;;
357;SDS011;167;47.558;7.602;2022-07-29T07:19:14;3.93;;;3.53;;
357;SDS011;167;47.558;7.602;2022-07-29T07:21:40;3.70;;;3.50;;
357;SDS011;167;47.558;7.602;2022-07-29T07:24:06;3.60;;;3.30;;
357;SDS011;167;47.558;7.602;2022-07-29T07:26:32;3.13;;;2.93;;
357;SDS011;167;47.558;7.602;2022-07-29T07:28:58;3.10;;;3.00;;
357;SDS011;167;47.558;7.602;2022-07-29T07:31:25;3.67;;;3.33;;
357;SDS011;167;47.558;7.602;2022-07-29T07:33:51;3.70;;;3.50;;
357;SDS011;167;47.558;7.602;2022-07-29T07:36:18;3.50;;;3.30;;
357;SDS011;167;47.558;7.602;2022-07-29T07:38:44;3.63;;;3.40;;
357;SDS011;167;47.558;7.602;2022-07-29T07:41:10;3.33;;;3.13;;
357;SDS011;167;47.558;7.602;2022-07-29T07:43:36;3.30;;;3.10;;
357;SDS011;167;47.558;7.602;2022-07-29T07:46:02;3.30;;;3.10;;
357;SDS011;167;47.558;7.602;2022-07-29T07:48:28;3.67;;;3.47;;
357;SDS011;167;47.558;7.602;2022-07-29T07:50:54;3.40;;;3.10;;
357;SDS011;167;47.558;7.602;2022-07-29T07:53:21;4.00;;;3.53;;
357;SDS011;167;47.558;7.602;2022-07-29T07:55:47;3.13;;;3.00;;
357;SDS011;167;47.558;7.602;2022-07-29T07:58:13;3.50;;;3.20;;
357;SDS011;167;47.558;7.602;2022-07-29T08:00:39;3.23;;;3.03;;
357;SDS011;167;47.558;7.602;2022-07-29T08:03:05;4.80;;;3.70;;
357;SDS011;167;47.558;7.602;2022-07-29T08:05:31;3.83;;;3.30;;
357;SDS011;167;47.558;7.602;2022-07-29T08:07:57;3.30;;;3.00;;
357;SDS011;167;47.558;7.602;2022-07-29T08:10:23;3.70;;;3.40;;
357;SDS011;167;47.558;7.602;2022-07-29T08:13:09;4.27;;;3.20;;
357;SDS011;167;47.558;7.602;2022-07-29T08:15:38;6.67;;;3.70;;
357;SDS011;167;47.558;7.602;2022-07-29T08:18:04;3.40;;;3.20;;
357;SDS011;167;47.558;7.602;2022-07-29T08:20:30;3.53;;;3.10;;
357;SDS011;167;47.558;7.602;2022-07-29T08:22:58;4.03;;;3.73;;
357;SDS011;167;47.558;7.602;2022-07-29T08:25:24;3.67;;;3.43;;
357;SDS011;167;47.558;7.602;2022-07-29T08:27:50;3.23;;;2.93;;
357;SDS011;167;47.558;7.602;2022-07-29T08:30:16;3.27;;;3.07;;
357;SDS011;167;47.558;7.602;2022-07-29T08:32:42;3.80;;;3.60;;
357;SDS011;167;47.558;7.602;2022-07-29T08:35:08;3.27;;;2.77;;
357;SDS011;167;47.558;7.602;2022-07-29T08:37:34;5.00;;;2.63;;
357;SDS011;167;47.558;7.602;2022-07-29T08:40:00;3.20;;;2.90;;
357;SDS011;167;47.558;7.602;2022-07-29T08:42:26;3.83;;;2.47;;
357;SDS011;167;47.558;7.602;2022-07-29T08:44:53;2.60;;;2.50;;
357;SDS011;167;47.558;7.602;2022-07-29T08:47:19;3.20;;;3.00;;
357;SDS011;167;47.558;7.602;2022-07-29T08:49:45;1.97;;;1.90;;
357;SDS011;167;47.558;7.602;2022-07-29T08:52:13;2.53;;;2.30;;
357;SDS011;167;47.558;7.602;2022-07-29T08:54:40;3.03;;;2.43;;
357;SDS011;167;47.558;7.602;2022-07-29T08:57:09;2.63;;;2.53;;
357;SDS011;167;47.558;7.602;2022-07-29T08:59:35;2.30;;;2.23;;
357;SDS011;167;47.558;7.602;2022-07-29T09:02:03;2.47;;;2.37;;
357;SDS011;167;47.558;7.602;2022-07-29T09:04:30;2.30;;;2.20;;
357;SDS011;167;47.558;7.602;2022-07-29T09:06:57;2.70;;;2.60;;
357;SDS011;167;47.558;7.602;2022-07-29T09:09:26;2.93;;;2.73;;
357;SDS011;167;47.558;7.602;2022-07-29T09:11:52;2.40;;;2.20;;
357;SDS011;167;47.558;7.602;2022-07-29T09:14:18;2.77;;;2.57;;
357;SDS011;167;47.558;7.602;2022-07-29T09:16:48;2.30;;;2.10;;
357;SDS011;167;47.558;7.602;2022-07-29T09:19:36;2.00;;;1.80;;
357;SDS011;167;47.558;7.602;2022-07-29T09:22:03;1.73;;;1.60;;
357;SDS011;167;47.558;7.602;2022-07-29T09:24:40;4.53;;;1.60;;
357;SDS011;167;47.558;7.602;2022-07-29T09:29:45;1.50;;;1.40;;
357;SDS011;167;47.558;7.602;2022-07-29T09:32:11;1.40;;;1.30;;
357;SDS011;167;47.558;7.602;2022-07-29T09:34:37;1.60;;;1.50;;
357;SDS011;167;47.558;7.602;2022-07-29T09:37:04;1.53;;;1.30;;
357;SDS011;167;47.558;7.602;2022-07-29T09:41:57;2.10;;;1.20;;
357;SDS011;167;47.558;7.602;2022-07-29T09:44:24;1.67;;;1.60;;
357;SDS011;167;47.558;7.602;2022-07-29T09:47:03;1.23;;;1.23;;
357;SDS011;167;47.558;7.602;2022-07-29T09:49:33;1.33;;;1.23;;
357;SDS011;167;47.558;7.602;2022-07-29T09:52:00;1.80;;;1.70;;
357;SDS011;167;47.558;7.602;2022-07-29T09:54:26;1.90;;;1.57;;
357;SDS011;167;47.558;7.602;2022-07-29T09:56:53;1.20;;;1.20;;
357;SDS011;167;47.558;7.602;2022-07-29T09:59:19;1.33;;;1.23;;
357;SDS011;167;47.558;7.602;2022-07-29T10:01:47;2.20;;;1.00;;
357;SDS011;167;47.558;7.602;2022-07-29T10:04:15;1.73;;;1.30;;
357;SDS011;167;47.558;7.602;2022-07-29T10:07:00;1.27;;;1.27;;
357;SDS011;167;47.558;7.602;2022-07-29T10:09:26;1.07;;;1.07;;
357;SDS011;167;47.558;7.602;2022-07-29T10:12:06;1.20;;;1.20;;
357;SDS011;167;47.558;7.602;2022-07-29T10:14:32;1.60;;;1.17;;
357;SDS011;167;47.558;7.602;2022-07-29T10:16:59;1.10;;;1.10;;
357;SDS011;167;47.558;7.602;2022-07-29T10:19:26;2.13;;;1.20;;
357;SDS011;167;47.558;7.602;2022-07-29T10:21:53;1.57;;;1.37;;
357;SDS011;167;47.558;7.602;2022-07-29T10:24:19;1.50;;;1.40;;
357;SDS011;167;47.558;7.602;2022-07-29T10:26:46;1.77;;;1.67;;
357;SDS011;167;47.558;7.602;2022-07-29T10:29:12;1.43;;;1.40;;
357;SDS011;167;47.558;7.602;2022-07-29T10:31:44;1.60;;;1.53;;
357;SDS011;167;47.558;7.602;2022-07-29T10:34:23;2.07;;;1.53;;
357;SDS011;167;47.558;7.602;2022-07-29T10:39:49;1.70;;;1.70;;
357;SDS011;167;47.558;7.602;2022-07-29T10:42:23;1.70;;;1.70;;
357;SDS011;167;47.558;7.602;2022-07-29T10:44:50;1.90;;;1.80;;
357;SDS011;167;47.558;7.602;2022-07-29T10:47:24;2.10;;;2.00;;
357;SDS011;167;47.558;7.602;2022-07-29T10:49:54;2.00;;;1.90;;
357;SDS011;167;47.558;7.602;2022-07-29T10:52:21;2.03;;;1.93;;
357;SDS011;167;47.558;7.602;2022-07-29T10:54:49;2.20;;;2.10;;
357;SDS011;167;47.558;7.602;2022-07-29T10:57:21;1.57;;;1.57;;
357;SDS011;167;47.558;7.602;2022-07-29T10:59:51;1.67;;;1.57;;
357;SDS011;167;47.558;7.602;2022-07-29T11:07:31;1.37;;;1.23;;
357;SDS011;167;47.558;7.602;2022-07-29T11:15:08;2.00;;;1.60;;
357;SDS011;167;47.558;7.602;2022-07-29T11:23:01;1.63;;;1.63;;
357;SDS011;167;47.558;7.602;2022-07-29T11:25:27;1.73;;;1.57;;
357;SDS011;167;47.558;7.602;2022-07-29T11:27:54;1.50;;;1.40;;
357;SDS011;167;47.558;7.602;2022-07-29T11:30:53;2.50;;;1.83;;
357;SDS011;167;47.558;7.602;2022-07-29T11:33:29;1.50;;;1.40;;
357;SDS011;167;47.558;7.602;2022-07-29T11:38:51;1.80;;;1.70;;
357;SDS011;167;47.558;7.602;2022-07-29T11:43:56;1.10;;;1.07;;
357;SDS011;167;47.558;7.602;2022-07-29T11:49:07;1.40;;;1.30;;
357;SDS011;167;47.558;7.602;2022-07-29T11:51:37;1.80;;;1.70;;
357;SDS011;167;47.558;7.602;2022-07-29T11:54:04;1.50;;;1.40;;
357;SDS011;167;47.558;7.602;2022-07-29T11:56:30;1.63;;;1.53;;
357;SDS011;167;47.558;7.602;2022-07-29T11:59:06;1.73;;;1.67;;
357;SDS011;167;47.558;7.602;2022-07-29T12:01:36;2.50;;;1.90;;
357;SDS011;167;47.558;7.602;2022-07-29T12:04:02;2.13;;;2.03;;
357;SDS011;167;47.558;7.602;2022-07-29T12:06:28;1.50;;;1.40;;
357;SDS011;167;47.558;7.602;2022-07-29T12:08:55;1.53;;;1.53;;
357;SDS011;167;47.558;7.602;2022-07-29T12:11:21;2.20;;;2.10;;
357;SDS011;167;47.558;7.602;2022-07-29T12:13:47;1.53;;;1.53;;
357;SDS011;167;47.558;7.602;2022-07-29T12:16:13;1.80;;;1.70;;
357;SDS011;167;47.558;7.602;2022-07-29T12:18:39;2.10;;;1.50;;
357;SDS011;167;47.558;7.602;2022-07-29T12:21:05;1.63;;;1.63;;
357;SDS011;167;47.558;7.602;2022-07-29T12:23:33;1.20;;;1.20;;
357;SDS011;167;47.558;7.602;2022-07-29T12:25:59;1.40;;;1.30;;
357;SDS011;167;47.558;7.602;2022-07-29T12:28:25;2.07;;;1.80;;
357;SDS011;167;47.558;7.602;2022-07-29T12:30:51;1.50;;;1.43;;
357;SDS011;167;47.558;7.602;2022-07-29T12:33:24;1.47;;;1.40;;
357;SDS011;167;47.558;7.602;2022-07-29T12:35:55;1.60;;;1.50;;
357;SDS011;167;47.558;7.602;2022-07-29T12:38:22;1.60;;;1.50;;
357;SDS011;167;47.558;7.602;2022-07-29T12:40:49;1.40;;;1.30;;
357;SDS011;167;47.558;7.602;2022-07-29T12:45:45;3.50;;;1.60;;
357;SDS011;167;47.558;7.602;2022-07-29T12:48:12;1.13;;;1.13;;
357;SDS011;167;47.558;7.602;2022-07-29T12:50:52;1.50;;;1.50;;
357;SDS011;167;47.558;7.602;2022-07-29T12:53:18;3.53;;;1.73;;
357;SDS011;167;47.558;7.602;2022-07-29T12:55:45;2.03;;;1.83;;
357;SDS011;167;47.558;7.602;2022-07-29T12:58:29;1.80;;;1.70;;
357;SDS011;167;47.558;7.602;2022-07-29T13:01:03;1.53;;;1.53;;
357;SDS011;167;47.558;7.602;2022-07-29T13:03:35;2.20;;;1.37;;
357;SDS011;167;47.558;7.602;2022-07-29T13:06:06;3.00;;;1.87;;
357;SDS011;167;47.558;7.602;2022-07-29T13:08:32;1.90;;;1.80;;
357;SDS011;167;47.558;7.602;2022-07-29T13:10:58;1.90;;;1.80;;
357;SDS011;167;47.558;7.602;2022-07-29T13:13:24;2.13;;;1.97;;
357;SDS011;167;47.558;7.602;2022-07-29T13:16:05;1.87;;;1.77;;
357;SDS011;167;47.558;7.602;2022-07-29T13:18:33;1.70;;;1.60;;
357;SDS011;167;47.558;7.602;2022-07-29T13:21:12;3.27;;;1.70;;
357;SDS011;167;47.558;7.602;2022-07-29T13:23:38;2.70;;;1.90;;
357;SDS011;167;47.558;7.602;2022-07-29T13:26:07;1.73;;;1.63;;
357;SDS011;167;47.558;7.602;2022-07-29T13:28:33;1.70;;;1.60;;
357;SDS011;167;47.558;7.602;2022-07-29T13:31:00;1.70;;;1.60;;
357;SDS011;167;47.558;7.602;2022-07-29T13:33:26;2.43;;;1.60;;
357;SDS011;167;47.558;7.602;2022-07-29T13:35:52;1.40;;;1.40;;
357;SDS011;167;47.558;7.602;2022-07-29T13:38:18;1.30;;;1.30;;
357;SDS011;167;47.558;7.602;2022-07-29T13:40:44;1.63;;;1.40;;
357;SDS011;167;47.558;7.602;2022-07-29T13:43:10;2.00;;;1.50;;
357;SDS011;167;47.558;7.602;2022-07-29T13:45:36;1.50;;;1.40;;
357;SDS011;167;47.558;7.602;2022-07-29T13:48:02;1.60;;;1.50;;
357;SDS011;167;47.558;7.602;2022-07-29T13:50:29;2.97;;;1.70;;
357;SDS011;167;47.558;7.602;2022-07-29T13:52:55;1.50;;;1.20;;
357;SDS011;167;47.558;7.602;2022-07-29T13:55:21;1.73;;;1.63;;
357;SDS011;167;47.558;7.602;2022-07-29T13:57:47;2.13;;;2.03;;
357;SDS011;167;47.558;7.602;2022-07-29T14:00:13;1.40;;;1.40;;
357;SDS011;167;47.558;7.602;2022-07-29T14:02:40;1.40;;;1.40;;
357;SDS011;167;47.558;7.602;2022-07-29T14:05:06;1.57;;;1.50;;
357;SDS011;167;47.558;7.602;2022-07-29T14:07:32;1.33;;;1.33;;
357;SDS011;167;47.558;7.602;2022-07-29T14:09:58;1.63;;;1.53;;
357;SDS011;167;47.558;7.602;2022-07-29T14:12:25;1.47;;;1.47;;
357;SDS011;167;47.558;7.602;2022-07-29T14:14:51;1.70;;;1.40;;
357;SDS011;167;47.558;7.602;2022-07-29T14:17:17;1.00;;;1.00;;
357;SDS011;167;47.558;7.602;2022-07-29T14:19:43;4.60;;;1.93;;
357;SDS011;167;47.558;7.602;2022-07-29T14:22:09;1.83;;;1.40;;
357;SDS011;167;47.558;7.602;2022-07-29T14:24:35;2.60;;;1.40;;
357;SDS011;167;47.558;7.602;2022-07-29T14:27:01;1.30;;;1.30;;
357;SDS011;167;47.558;7.602;2022-07-29T14:29:27;1.30;;;1.20;;
357;SDS011;167;47.558;7.602;2022-07-29T14:31:53;1.67;;;1.57;;
357;SDS011;167;47.558;7.602;2022-07-29T14:34:20;1.73;;;1.63;;
357;SDS011;167;47.558;7.602;2022-07-29T14:36:46;1.33;;;1.20;;
357;SDS011;167;47.558;7.602;2022-07-29T14:39:12;1.80;;;1.40;;
357;SDS011;167;47.558;7.602;2022-07-29T14:41:38;2.10;;;1.70;;
357;SDS011;167;47.558;7.602;2022-07-29T14:44:04;4.10;;;2.17;;
357;SDS011;167;47.558;7.602;2022-07-29T14:46:30;1.87;;;1.77;;
357;SDS011;167;47.558;7.602;2022-07-29T14:48:56;1.60;;;1.50;;
357;SDS011;167;47.558;7.602;2022-07-29T14:51:22;1.90;;;1.80;;
357;SDS011;167;47.558;7.602;2022-07-29T14:53:48;2.27;;;2.00;;
357;SDS011;167;47.558;7.602;2022-07-29T14:56:14;1.90;;;1.80;;
357;SDS011;167;47.558;7.602;2022-07-29T14:58:40;2.30;;;2.10;;
357;SDS011;167;47.558;7.602;2022-07-29T15:01:06;1.80;;;1.70;;
357;SDS011;167;47.558;7.602;2022-07-29T15:03:32;1.77;;;1.67;;
357;SDS011;167;47.558;7.602;2022-07-29T15:05:58;1.80;;;1.63;;
357;SDS011;167;47.558;7.602;2022-07-29T15:08:24;2.10;;;1.70;;
357;SDS011;167;47.558;7.602;2022-07-29T15:10:52;1.20;;;1.10;;
357;SDS011;167;47.558;7.602;2022-07-29T15:13:18;1.73;;;1.63;;
357;SDS011;167;47.558;7.602;2022-07-29T15:15:44;1.43;;;1.33;;
357;SDS011;167;47.558;7.602;2022-07-29T15:18:11;2.00;;;1.87;;
357;SDS011;167;47.558;7.602;2022-07-29T15:20:37;1.73;;;1.50;;
357;SDS011;167;47.558;7.602;2022-07-29T15:23:03;1.37;;;1.37;;
357;SDS011;167;47.558;7.602;2022-07-29T15:25:29;2.00;;;1.60;;
357;SDS011;167;47.558;7.602;2022-07-29T15:27:55;1.87;;;1.70;;
357;SDS011;167;47.558;7.602;2022-07-29T15:30:21;1.77;;;1.67;;
357;SDS011;167;47.558;7.602;2022-07-29T15:32:47;1.50;;;1.40;;
357;SDS011;167;47.558;7.602;2022-07-29T15:35:13;2.50;;;1.60;;
357;SDS011;167;47.558;7.602;2022-07-29T15:37:39;1.80;;;1.70;;
357;SDS011;167;47.558;7.602;2022-07-29T15:40:05;2.40;;;1.63;;
357;SDS011;167;47.558;7.602;2022-07-29T15:42:31;2.87;;;1.40;;
357;SDS011;167;47.558;7.602;2022-07-29T15:44:58;1.60;;;1.60;;
357;SDS011;167;47.558;7.602;2022-07-29T15:47:27;1.33;;;1.33;;
357;SDS011;167;47.558;7.602;2022-07-29T15:49:54;2.47;;;1.90;;
357;SDS011;167;47.558;7.602;2022-07-29T15:52:20;2.00;;;1.40;;
357;SDS011;167;47.558;7.602;2022-07-29T15:54:46;1.50;;;1.50;;
357;SDS011;167;47.558;7.602;2022-07-29T15:57:12;1.00;;;1.00;;
357;SDS011;167;47.558;7.602;2022-07-29T15:59:38;1.10;;;1.10;;
357;SDS011;167;47.558;7.602;2022-07-29T16:02:05;1.77;;;1.67;;
357;SDS011;167;47.558;7.602;2022-07-29T16:04:31;1.50;;;1.50;;
357;SDS011;167;47.558;7.602;2022-07-29T16:06:57;1.70;;;1.10;;
357;SDS011;167;47.558;7.602;2022-07-29T16:09:23;1.60;;;1.33;;
357;SDS011;167;47.558;7.602;2022-07-29T16:11:49;1.77;;;1.63;;
357;SDS011;167;47.558;7.602;2022-07-29T16:14:18;1.70;;;1.70;;
357;SDS011;167;47.558;7.602;2022-07-29T16:16:44;1.20;;;1.20;;
357;SDS011;167;47.558;7.602;2022-07-29T16:19:10;1.60;;;1.50;;
357;SDS011;167;47.558;7.602;2022-07-29T16:21:37;1.83;;;1.73;;
357;SDS011;167;47.558;7.602;2022-07-29T16:24:03;1.30;;;1.30;;
357;SDS011;167;47.558;7.602;2022-07-29T16:26:30;2.47;;;1.70;;
357;SDS011;167;47.558;7.602;2022-07-29T16:28:56;1.87;;;1.77;;
357;SDS011;167;47.558;7.602;2022-07-29T16:31:22;1.70;;;1.60;;